createdAt,value
2019-05-22T00:02:04.895Z,80.29
2019-05-22T00:04:40.441Z,80.19
2019-05-22T00:07:11.994Z,80.04
2019-05-22T00:09:45.082Z,79.75
2019-05-22T00:12:17.213Z,79.48
2019-05-22T00:14:50.220Z,79.61
2019-05-22T00:17:22.309Z,79.73
2019-05-22T00:19:52.918Z,79.89
2019-05-22T00:22:25.338Z,79.80
2019-05-22T00:24:57.638Z,79.86
2019-05-22T00:27:28.742Z,79.97
2019-05-22T00:30:01.710Z,80.11
2019-05-22T00:32:33.894Z,80.10
2019-05-22T00:35:06.511Z,80.29
2019-05-22T00:37:37.823Z,80.65
2019-05-22T00:40:09.557Z,80.94
2019-05-22T00:42:41.883Z,81.19
2019-05-22T00:45:14.811Z,81.45
2019-05-22T00:47:45.501Z,81.68
2019-05-22T00:50:21.875Z,81.76
2019-05-22T00:53:04.116Z,81.91
2019-05-22T00:55:48.879Z,81.99
2019-05-22T00:58:21.281Z,81.96
2019-05-22T01:00:54.331Z,81.82
2019-05-22T01:03:30.023Z,81.67
2019-05-22T01:06:01.737Z,81.60
2019-05-22T01:08:33.953Z,81.69
2019-05-22T01:11:06.899Z,81.65
2019-05-22T01:13:37.999Z,81.56
2019-05-22T01:16:10.468Z,81.37
2019-05-22T01:18:42.639Z,81.53
2019-05-22T01:21:14.865Z,81.21
2019-05-22T01:23:48.754Z,81.24
2019-05-22T01:26:20.510Z,81.49
2019-05-22T01:28:51.551Z,81.65
2019-05-22T01:31:29.870Z,81.73
2019-05-22T01:34:03.199Z,82.02
2019-05-22T01:36:35.342Z,82.25
2019-05-22T01:39:23.578Z,82.48
2019-05-22T01:41:57.450Z,82.71
2019-05-22T01:44:28.625Z,82.77
2019-05-22T01:47:00.711Z,82.74
2019-05-22T01:49:31.519Z,82.63
2019-05-22T01:52:03.277Z,82.27
2019-05-22T01:54:33.762Z,81.95
2019-05-22T01:57:06.978Z,81.65
2019-05-22T01:59:39.311Z,81.06
2019-05-22T02:02:10.082Z,80.28
2019-05-22T02:04:42.666Z,80.20
2019-05-22T02:07:13.314Z,80.09
2019-05-22T02:09:44.520Z,79.56
2019-05-22T02:12:17.684Z,79.59
2019-05-22T02:14:50.523Z,79.17
2019-05-22T02:17:22.601Z,79.85
2019-05-22T02:19:53.693Z,80.11
2019-05-22T02:22:26.983Z,79.19
2019-05-22T02:24:57.929Z,79.34
2019-05-22T02:27:30.272Z,78.69
2019-05-22T02:30:01.987Z,79.14
2019-05-22T02:32:34.443Z,79.28
2019-05-22T02:35:08.167Z,79.60
2019-05-22T02:37:39.692Z,79.12
2019-05-22T02:40:15.535Z,79.11
2019-05-22T02:42:46.859Z,78.31
2019-05-22T02:45:17.657Z,77.97
2019-05-22T02:47:49.317Z,78.26
2019-05-22T02:50:20.207Z,78.32
2019-05-22T02:52:50.646Z,77.79
2019-05-22T02:55:21.482Z,78.08
2019-05-22T02:57:52.732Z,77.86
2019-05-22T03:00:26.340Z,78.83
2019-05-22T03:02:57.586Z,78.50
2019-05-22T03:05:28.647Z,79.07
2019-05-22T03:07:59.667Z,79.75
2019-05-22T03:10:31.251Z,79.89
2019-05-22T03:13:02.932Z,80.33
2019-05-22T03:15:33.532Z,80.68
2019-05-22T03:18:05.568Z,81.33
2019-05-22T03:20:38.077Z,80.18
2019-05-22T03:23:13.270Z,79.65
2019-05-22T03:25:44.742Z,80.04
2019-05-22T03:28:15.593Z,80.20
2019-05-22T03:30:46.882Z,80.49
2019-05-22T03:33:17.961Z,80.42
2019-05-22T03:35:51.713Z,81.05
2019-05-22T03:38:23.434Z,80.18
2019-05-22T03:40:55.095Z,80.13
2019-05-22T03:43:28.364Z,80.31
2019-05-22T03:46:01.100Z,80.59
2019-05-22T03:48:33.708Z,80.38
2019-05-22T03:51:12.906Z,80.53
2019-05-22T03:53:44.114Z,80.07
2019-05-22T03:56:16.314Z,80.47
2019-05-22T03:58:47.395Z,80.50
2019-05-22T04:01:19.878Z,80.18
2019-05-22T04:03:50.696Z,80.21
2019-05-22T04:06:23.460Z,80.45
2019-05-22T04:08:54.511Z,80.15
2019-05-22T04:11:26.731Z,79.33
2019-05-22T04:13:58.752Z,79.04
2019-05-22T04:16:30.657Z,79.45
2019-05-22T04:19:01.191Z,79.05
2019-05-22T04:21:32.646Z,78.24
2019-05-22T04:24:03.529Z,78.49
2019-05-22T04:26:34.484Z,79.00
2019-05-22T04:29:05.364Z,79.37
2019-05-22T04:31:40.388Z,79.28
2019-05-22T04:34:11.733Z,78.51
2019-05-22T04:36:42.632Z,79.09
2019-05-22T04:39:20.630Z,79.09
2019-05-22T04:41:51.622Z,78.95
2019-05-22T04:44:22.855Z,79.08
2019-05-22T04:46:53.795Z,78.97
2019-05-22T04:49:24.741Z,78.59
2019-05-22T04:51:55.940Z,78.31
2019-05-22T04:54:26.513Z,77.98
2019-05-22T04:56:57.078Z,78.46
2019-05-22T04:59:27.631Z,78.72
2019-05-22T05:01:58.538Z,79.18
2019-05-22T05:04:30.362Z,79.80
2019-05-22T05:07:01.560Z,79.63
2019-05-22T05:09:32.238Z,79.82
2019-05-22T05:12:03.257Z,80.05
2019-05-22T05:14:34.115Z,79.58
2019-05-22T05:17:05.462Z,78.73
2019-05-22T05:19:36.302Z,78.30
2019-05-22T05:22:07.149Z,77.65
2019-05-22T05:24:37.664Z,77.22
2019-05-22T05:27:08.511Z,76.84
2019-05-22T05:29:39.328Z,77.26
2019-05-22T05:32:11.195Z,76.74
2019-05-22T05:34:46.284Z,77.00
2019-05-22T05:37:19.782Z,77.26
2019-05-22T05:39:51.759Z,77.28
2019-05-22T05:42:22.223Z,77.37
2019-05-22T05:44:52.963Z,77.32
2019-05-22T05:47:24.072Z,77.38
2019-05-22T05:49:55.018Z,76.06
2019-05-22T05:52:26.586Z,74.07
2019-05-22T05:54:58.157Z,73.45
2019-05-22T05:57:38.199Z,73.21
2019-05-22T06:00:24.703Z,72.67
2019-05-22T06:02:56.944Z,72.25
2019-05-22T06:05:27.860Z,71.84
2019-05-22T06:07:58.464Z,71.50
2019-05-22T06:10:31.690Z,71.63
2019-05-22T06:13:02.465Z,71.20
2019-05-22T06:15:47.277Z,71.49
2019-05-22T06:18:31.993Z,70.77
2019-05-22T06:21:04.739Z,70.05
2019-05-22T06:23:39.803Z,66.82
2019-05-22T06:26:12.445Z,66.79
2019-05-22T06:28:44.262Z,64.27
2019-05-22T06:31:33.614Z,64.28
2019-05-22T06:34:05.975Z,63.37
2019-05-22T06:36:37.020Z,64.04
2019-05-22T06:39:10.287Z,63.98
2019-05-22T06:41:42.482Z,63.42
2019-05-22T06:44:26.792Z,63.14
2019-05-22T06:46:58.235Z,63.54
2019-05-22T06:49:32.821Z,63.88
2019-05-22T06:52:04.752Z,64.90
2019-05-22T06:54:35.601Z,65.68
2019-05-22T06:57:08.195Z,66.69
2019-05-22T06:59:39.240Z,65.90
2019-05-22T07:02:10.556Z,65.59
2019-05-22T07:04:41.488Z,66.65
2019-05-22T07:07:14.031Z,66.56
2019-05-22T07:09:45.925Z,67.92
2019-05-22T07:12:18.345Z,68.78
2019-05-22T07:14:53.005Z,69.66
2019-05-22T07:17:25.610Z,71.31
2019-05-22T07:19:56.046Z,71.56
2019-05-22T07:22:27.200Z,70.06
2019-05-22T07:24:58.338Z,70.67
2019-05-22T07:27:30.242Z,70.88
2019-05-22T07:30:00.822Z,71.53
2019-05-22T07:32:31.784Z,72.38
2019-05-22T07:35:02.943Z,73.52
2019-05-22T07:37:35.652Z,74.87
2019-05-22T07:40:06.822Z,74.94
2019-05-22T07:42:39.712Z,75.04
2019-05-22T07:45:10.649Z,76.21
2019-05-22T07:47:43.021Z,76.43
2019-05-22T07:50:14.785Z,76.46
2019-05-22T07:52:45.411Z,76.83
2019-05-22T07:55:17.272Z,77.84
2019-05-22T07:57:49.649Z,78.12
2019-05-22T08:00:20.387Z,78.18
2019-05-22T08:02:51.238Z,77.77
2019-05-22T08:05:23.790Z,77.22
2019-05-22T08:07:54.920Z,77.70
2019-05-22T08:10:25.630Z,77.96
2019-05-22T08:12:57.007Z,78.29
2019-05-22T08:15:27.954Z,79.18
2019-05-22T08:17:58.482Z,79.71
2019-05-22T08:20:30.236Z,78.91
2019-05-22T08:23:00.672Z,78.38
2019-05-22T08:25:31.254Z,78.21
2019-05-22T08:28:02.134Z,78.64
2019-05-22T08:30:33.169Z,78.63
2019-05-22T08:33:05.404Z,79.03
2019-05-22T08:35:36.398Z,78.94
2019-05-22T08:38:08.546Z,78.81
2019-05-22T08:40:39.799Z,78.20
2019-05-22T08:43:10.728Z,77.78
2019-05-22T08:45:41.191Z,77.80
2019-05-22T08:48:13.636Z,78.45
2019-05-22T08:50:46.149Z,78.02
2019-05-22T08:53:18.886Z,78.89
2019-05-22T08:55:49.931Z,78.50
2019-05-22T08:58:21.175Z,79.03
2019-05-22T09:00:51.664Z,80.54
2019-05-22T09:03:22.638Z,81.07
2019-05-22T09:05:53.324Z,79.41
2019-05-22T09:08:24.501Z,77.84
2019-05-22T09:10:54.964Z,75.85
2019-05-22T09:13:25.679Z,77.93
2019-05-22T09:16:01.667Z,78.16
2019-05-22T09:18:31.257Z,78.35
2019-05-22T09:21:01.935Z,79.12
2019-05-22T09:23:34.127Z,78.97
2019-05-22T09:26:06.101Z,79.82
2019-05-22T09:28:37.725Z,81.50
2019-05-22T09:31:08.236Z,81.77
2019-05-22T09:33:38.705Z,82.15
2019-05-22T09:36:09.959Z,82.88
2019-05-22T09:38:40.517Z,82.65
2019-05-22T09:41:11.428Z,82.64
2019-05-22T09:43:42.031Z,83.07
2019-05-22T09:46:12.883Z,83.62
2019-05-22T09:48:43.627Z,84.20
2019-05-22T09:51:14.460Z,84.37
2019-05-22T09:53:45.129Z,83.73
2019-05-22T09:56:16.243Z,83.33
2019-05-22T09:58:47.378Z,83.76
2019-05-22T10:01:18.224Z,84.12
2019-05-22T10:03:48.939Z,85.31
2019-05-22T10:06:21.649Z,85.19
2019-05-22T10:08:52.563Z,84.73
2019-05-22T10:11:23.585Z,84.74
2019-05-22T10:13:54.381Z,85.56
2019-05-22T10:16:25.324Z,84.80
2019-05-22T10:18:56.662Z,85.26
2019-05-22T10:21:27.972Z,85.11
2019-05-22T10:23:58.712Z,84.93
2019-05-22T10:26:30.159Z,84.57
2019-05-22T10:29:01.096Z,84.25
2019-05-22T10:31:31.829Z,84.74
2019-05-22T10:34:03.491Z,84.67
2019-05-22T10:36:34.968Z,85.13
2019-05-22T10:39:06.700Z,85.32
2019-05-22T10:41:37.414Z,84.85
2019-05-22T10:44:08.226Z,83.97
2019-05-22T10:46:39.310Z,83.72
2019-05-22T10:49:09.846Z,83.97
2019-05-22T10:51:40.284Z,83.94
2019-05-22T10:54:11.196Z,83.91
2019-05-22T10:56:41.724Z,82.97
2019-05-22T10:59:12.731Z,83.62
2019-05-22T11:01:43.811Z,83.28
2019-05-22T11:04:19.378Z,83.00
2019-05-22T11:06:49.162Z,83.61
2019-05-22T11:09:20.615Z,82.81
2019-05-22T11:11:51.247Z,83.22
2019-05-22T11:14:21.913Z,83.61
2019-05-22T11:16:53.173Z,83.58
2019-05-22T11:19:24.991Z,82.04
2019-05-22T11:21:57.105Z,83.09
2019-05-22T11:24:28.819Z,84.13
2019-05-22T11:26:59.825Z,83.11
2019-05-22T11:29:30.894Z,83.90
2019-05-22T11:32:01.504Z,83.77
2019-05-22T11:34:32.475Z,84.14
2019-05-22T11:37:04.520Z,83.41
2019-05-22T11:39:40.229Z,83.09
2019-05-22T11:42:11.417Z,82.66
2019-05-22T11:44:42.123Z,83.18
2019-05-22T11:47:15.197Z,83.93
2019-05-22T11:49:45.672Z,83.96
2019-05-22T11:52:17.423Z,83.67
2019-05-22T11:54:48.254Z,82.01
2019-05-22T11:57:18.837Z,80.75
2019-05-22T11:59:50.034Z,80.40
2019-05-22T12:02:22.925Z,81.80
2019-05-22T12:04:54.149Z,81.33
2019-05-22T12:07:25.172Z,80.99
2019-05-22T12:09:56.040Z,81.24
2019-05-22T12:12:27.895Z,80.66
2019-05-22T12:14:59.412Z,80.56
2019-05-22T12:17:37.906Z,82.04
2019-05-22T12:20:03.358Z,80.33
2019-05-22T12:22:34.725Z,81.13
2019-05-22T12:25:05.454Z,81.77
2019-05-22T12:27:36.367Z,82.15
2019-05-22T12:30:07.957Z,82.50
2019-05-22T12:32:39.614Z,82.26
2019-05-22T12:35:11.924Z,82.32
2019-05-22T12:37:43.189Z,81.61
2019-05-22T12:40:15.997Z,80.43
2019-05-22T12:42:47.338Z,79.37
2019-05-22T12:45:19.829Z,79.77
2019-05-22T12:47:50.348Z,80.28
2019-05-22T12:50:22.570Z,78.88
2019-05-22T12:52:54.129Z,79.17
2019-05-22T12:55:25.468Z,81.43
2019-05-22T12:57:56.230Z,81.11
2019-05-22T13:00:27.509Z,80.96
2019-05-22T13:03:00.856Z,81.30
2019-05-22T13:05:34.837Z,81.46
2019-05-22T13:08:06.272Z,80.69
2019-05-22T13:10:37.194Z,80.72
2019-05-22T13:13:09.416Z,80.45
2019-05-22T13:15:40.813Z,80.74
2019-05-22T13:18:12.771Z,81.32
2019-05-22T13:20:45.091Z,80.82
2019-05-22T13:23:17.314Z,81.68
2019-05-22T13:25:48.439Z,80.93
2019-05-22T13:28:19.147Z,81.26
2019-05-22T13:30:51.527Z,82.52
2019-05-22T13:33:22.905Z,83.05
2019-05-22T13:35:54.360Z,81.99
2019-05-22T13:38:25.096Z,82.34
2019-05-22T13:40:55.834Z,82.29
2019-05-22T13:43:27.616Z,82.81
2019-05-22T13:45:58.321Z,83.20
2019-05-22T13:48:30.484Z,83.15
2019-05-22T13:51:01.727Z,82.20
2019-05-22T13:53:32.858Z,82.02
2019-05-22T13:56:03.748Z,81.14
2019-05-22T13:58:35.424Z,81.34
2019-05-22T14:01:07.511Z,83.03
2019-05-22T14:03:38.052Z,83.86
2019-05-22T14:06:09.506Z,84.08
2019-05-22T14:08:39.930Z,83.79
2019-05-22T14:11:11.149Z,83.57
2019-05-22T14:13:42.114Z,84.41
2019-05-22T14:16:13.045Z,83.74
2019-05-22T14:18:43.391Z,84.16
2019-05-22T14:21:14.014Z,83.36
2019-05-22T14:23:44.747Z,82.43
2019-05-22T14:26:15.689Z,80.81
2019-05-22T14:28:46.277Z,80.43
2019-05-22T14:31:17.337Z,80.54
2019-05-22T14:33:48.096Z,80.22
2019-05-22T14:36:19.218Z,79.15
2019-05-22T14:38:50.550Z,79.65
2019-05-22T14:41:21.366Z,79.81
2019-05-22T14:43:52.113Z,79.57
2019-05-22T14:46:22.964Z,79.87
2019-05-22T14:48:53.631Z,81.50
2019-05-22T14:51:24.683Z,82.00
2019-05-22T14:53:56.619Z,81.82
2019-05-22T14:56:27.219Z,80.61
2019-05-22T14:58:57.781Z,79.95
2019-05-22T15:01:31.204Z,80.46
2019-05-22T15:04:02.013Z,78.94
2019-05-22T15:06:32.745Z,79.35
2019-05-22T15:09:04.846Z,79.04
2019-05-22T15:11:35.773Z,81.38
2019-05-22T15:14:06.377Z,80.89
2019-05-22T15:16:36.945Z,81.16
2019-05-22T15:19:07.953Z,79.28
2019-05-22T15:21:38.577Z,78.13
2019-05-22T15:24:09.615Z,78.04
2019-05-22T15:26:40.463Z,78.64
2019-05-22T15:29:10.983Z,77.86
2019-05-22T15:31:41.815Z,78.81
2019-05-22T15:34:12.550Z,79.10
2019-05-22T15:36:43.389Z,78.52
2019-05-22T15:39:15.245Z,78.15
2019-05-22T15:41:46.630Z,76.40
2019-05-22T15:44:18.146Z,75.93
2019-05-22T15:46:49.697Z,75.50
2019-05-22T15:49:21.498Z,76.46
2019-05-22T15:51:52.198Z,76.35
2019-05-22T15:54:23.643Z,77.18
2019-05-22T15:56:55.198Z,76.95
2019-05-22T15:59:28.078Z,77.26
2019-05-22T16:01:59.789Z,78.77
2019-05-22T16:04:31.489Z,77.61
2019-05-22T16:07:03.069Z,76.22
2019-05-22T16:09:35.998Z,75.65
2019-05-22T16:12:06.555Z,76.00
2019-05-22T16:14:37.838Z,75.14
2019-05-22T16:17:08.752Z,75.23
2019-05-22T16:19:39.489Z,75.71
2019-05-22T16:22:10.397Z,76.37
2019-05-22T16:24:41.152Z,77.48
2019-05-22T16:27:13.072Z,78.67
2019-05-22T16:29:44.055Z,78.85
2019-05-22T16:32:17.620Z,78.92
2019-05-22T16:34:48.495Z,79.02
2019-05-22T16:37:19.082Z,78.79
2019-05-22T16:39:50.573Z,79.98
2019-05-22T16:42:21.963Z,78.29
2019-05-22T16:44:52.644Z,78.03
2019-05-22T16:47:24.307Z,78.61
2019-05-22T16:49:55.633Z,77.55
2019-05-22T16:52:28.461Z,77.29
2019-05-22T16:54:59.063Z,77.66
2019-05-22T16:57:30.822Z,78.07
2019-05-22T17:00:01.617Z,77.53
2019-05-22T17:02:33.676Z,77.01
2019-05-22T17:05:05.278Z,77.97
2019-05-22T17:07:35.912Z,77.58
2019-05-22T17:10:08.466Z,76.99
2019-05-22T17:12:40.953Z,77.63
2019-05-22T17:15:16.011Z,78.36
2019-05-22T17:17:47.090Z,77.36
2019-05-22T17:20:20.842Z,77.40
2019-05-22T17:22:51.877Z,77.26
2019-05-22T17:25:25.027Z,77.25
2019-05-22T17:27:57.417Z,77.45
2019-05-22T17:30:28.790Z,77.65
2019-05-22T17:32:59.890Z,78.34
2019-05-22T17:35:31.077Z,78.44
2019-05-22T17:38:02.335Z,78.63
2019-05-22T17:40:33.640Z,79.07
2019-05-22T17:43:04.496Z,78.67
2019-05-22T17:45:35.769Z,79.05
2019-05-22T17:48:06.923Z,78.99
2019-05-22T17:50:38.577Z,79.38
2019-05-22T17:53:09.639Z,80.00
2019-05-22T17:55:41.270Z,80.70
2019-05-22T17:58:12.215Z,80.15
2019-05-22T18:00:44.681Z,80.23
2019-05-22T18:03:17.062Z,80.32
2019-05-22T18:05:48.048Z,80.54
2019-05-22T18:08:19.432Z,80.60
2019-05-22T18:10:50.483Z,80.78
2019-05-22T18:13:22.505Z,80.85
2019-05-22T18:15:53.470Z,80.75
2019-05-22T18:18:24.569Z,80.55
2019-05-22T18:20:55.356Z,80.54
2019-05-22T18:23:27.217Z,81.01
2019-05-22T18:25:58.042Z,81.54
2019-05-22T18:28:29.657Z,81.31
2019-05-22T18:31:00.476Z,80.29
2019-05-22T18:33:31.167Z,80.50
2019-05-22T18:36:02.007Z,80.11
2019-05-22T18:38:32.951Z,80.32
2019-05-22T18:41:03.812Z,80.33
2019-05-22T18:43:34.714Z,80.65
2019-05-22T18:46:05.916Z,81.08
2019-05-22T18:48:36.611Z,81.17
2019-05-22T18:51:08.501Z,80.97
2019-05-22T18:53:40.339Z,80.96
2019-05-22T18:56:12.051Z,81.62
2019-05-22T18:58:43.458Z,81.12
2019-05-22T19:01:16.340Z,80.80
2019-05-22T19:03:47.720Z,80.60
2019-05-22T19:06:29.766Z,80.23
2019-05-22T19:08:51.639Z,80.28
2019-05-22T19:11:23.035Z,79.80
2019-05-22T19:13:53.985Z,79.35
2019-05-22T19:16:25.239Z,79.51
2019-05-22T19:18:57.447Z,79.96
2019-05-22T19:21:28.011Z,80.06
2019-05-22T19:23:59.181Z,81.12
2019-05-22T19:26:30.201Z,80.88
2019-05-22T19:29:00.926Z,80.96
2019-05-22T19:31:31.859Z,80.99
2019-05-22T19:34:03.015Z,81.48
2019-05-22T19:36:34.070Z,81.86
2019-05-22T19:39:06.061Z,81.93
2019-05-22T19:41:37.187Z,81.59
2019-05-22T19:44:07.946Z,81.61
2019-05-22T19:46:38.521Z,82.17
2019-05-22T19:49:09.598Z,82.19
2019-05-22T19:51:42.131Z,82.57
2019-05-22T19:54:13.039Z,82.56
2019-05-22T19:56:44.519Z,83.37
2019-05-22T19:59:15.353Z,82.82
2019-05-22T20:01:46.711Z,83.00
2019-05-22T20:04:17.642Z,82.91
2019-05-22T20:06:50.032Z,82.88
2019-05-22T20:09:21.178Z,82.78
2019-05-22T20:11:52.830Z,82.82
2019-05-22T20:14:25.157Z,82.58
2019-05-22T20:16:56.131Z,82.57
2019-05-22T20:19:26.854Z,82.97
2019-05-22T20:22:00.144Z,82.84
2019-05-22T20:24:30.580Z,82.85
2019-05-22T20:27:01.521Z,82.90
2019-05-22T20:29:32.754Z,83.38
2019-05-22T20:32:03.703Z,82.96
2019-05-22T20:34:34.426Z,82.93
2019-05-22T20:37:05.374Z,82.58
2019-05-22T20:39:36.719Z,82.90
2019-05-22T20:42:08.170Z,83.34
2019-05-22T20:44:39.412Z,82.94
2019-05-22T20:47:11.272Z,82.94
2019-05-22T20:49:43.787Z,83.23
2019-05-22T20:52:16.424Z,83.52
2019-05-22T20:54:47.368Z,83.78
2019-05-22T20:57:20.237Z,83.79
2019-05-22T20:59:51.901Z,83.68
2019-05-22T21:02:24.564Z,83.87
2019-05-22T21:04:57.100Z,83.49
2019-05-22T21:07:35.270Z,84.23
2019-05-22T21:10:07.883Z,83.71
2019-05-22T21:12:39.613Z,83.65
2019-05-22T21:15:10.376Z,83.71
2019-05-22T21:17:41.915Z,83.65
2019-05-22T21:20:14.978Z,83.65
2019-05-22T21:22:46.340Z,83.62
2019-05-22T21:25:17.358Z,84.07
2019-05-22T21:27:48.101Z,83.84
2019-05-22T21:30:21.623Z,83.69
2019-05-22T21:32:52.857Z,83.61
2019-05-22T21:35:24.550Z,83.92
2019-05-22T21:37:56.154Z,83.80
2019-05-22T21:40:27.289Z,83.69
2019-05-22T21:42:58.022Z,83.85
2019-05-22T21:45:29.472Z,83.80
2019-05-22T21:48:00.124Z,83.69
2019-05-22T21:50:32.309Z,84.37
2019-05-22T21:53:03.910Z,84.07
2019-05-22T21:55:35.610Z,84.23
2019-05-22T21:58:06.901Z,84.58
2019-05-22T22:00:40.955Z,83.89
2019-05-22T22:03:13.720Z,84.05
2019-05-22T22:05:46.123Z,83.92
2019-05-22T22:08:17.087Z,84.11
2019-05-22T22:10:48.300Z,83.96
2019-05-22T22:13:19.417Z,84.01
2019-05-22T22:15:50.983Z,84.15
2019-05-22T22:18:24.577Z,84.07
2019-05-22T22:20:55.287Z,84.11
2019-05-22T22:23:26.273Z,83.83
2019-05-22T22:25:57.079Z,83.80
2019-05-22T22:28:28.031Z,84.09
2019-05-22T22:31:01.006Z,84.02
2019-05-22T22:33:33.113Z,83.89
2019-05-22T22:36:06.084Z,83.89
2019-05-22T22:38:38.425Z,83.86
2019-05-22T22:41:10.493Z,83.85
2019-05-22T22:43:43.366Z,83.86
2019-05-22T22:46:48.314Z,83.93
2019-05-22T22:49:20.683Z,83.78
2019-05-22T22:51:53.668Z,83.75
2019-05-22T22:54:25.015Z,83.79
2019-05-22T22:56:55.958Z,83.82
2019-05-22T22:59:26.771Z,83.91
2019-05-22T23:01:59.722Z,83.71
2019-05-22T23:04:31.058Z,83.92
2019-05-22T23:07:03.494Z,84.01
2019-05-22T23:09:37.305Z,83.65
2019-05-22T23:12:10.090Z,83.65
2019-05-22T23:14:42.876Z,83.69
2019-05-22T23:17:13.907Z,84.01
2019-05-22T23:19:44.696Z,84.13
2019-05-22T23:22:20.082Z,83.81
2019-05-22T23:24:52.249Z,84.20
2019-05-22T23:27:23.699Z,84.27
2019-05-22T23:29:54.468Z,83.93
2019-05-22T23:32:25.173Z,83.87
2019-05-22T23:34:56.982Z,83.96
2019-05-22T23:37:27.969Z,83.93
2019-05-22T23:39:59.498Z,84.10
2019-05-22T23:42:31.886Z,83.97
2019-05-22T23:45:04.057Z,83.76
2019-05-22T23:47:37.451Z,83.62
2019-05-22T23:50:08.498Z,83.65
2019-05-22T23:52:39.965Z,83.86
2019-05-22T23:55:11.843Z,84.06
2019-05-22T23:57:43.772Z,84.17
